sensor_id;sensor_type;location;lat;lon;timestamp;temperature;humidity
3792;DHT22;1911;53.768;11.474;2023-05-10T00:00:33;12.00;1.00
3792;DHT22;1911;53.768;11.474;2023-05-10T00:02:58;12.00;1.00
3792;DHT22;1911;53.768;11.474;2023-05-10T00:05:24;12.00;1.00
3792;DHT22;1911;53.768;11.474;2023-05-10T00:07:49;12.00;1.00
3792;DHT22;1911;53.768;11.474;2023-05-10T00:10:15;12.00;1.00
3792;DHT22;1911;53.768;11.474;2023-05-10T00:12:41;12.00;1.00
3792;DHT22;1911;53.768;11.474;2023-05-10T00:15:07;12.00;1.00
3792;DHT22;1911;53.768;11.474;2023-05-10T00:17:33;11.90;1.00
3792;DHT22;1911;53.768;11.474;2023-05-10T00:19:59;11.90;1.00
3792;DHT22;1911;53.768;11.474;2023-05-10T00:22:24;11.90;1.00
3792;DHT22;1911;53.768;11.474;2023-05-10T00:24:50;11.90;1.00
3792;DHT22;1911;53.768;11.474;2023-05-10T00:27:16;11.90;1.00
3792;DHT22;1911;53.768;11.474;2023-05-10T00:29:41;11.90;1.00
3792;DHT22;1911;53.768;11.474;2023-05-10T00:32:07;11.80;1.00
3792;DHT22;1911;53.768;11.474;2023-05-10T00:34:33;11.80;1.00
3792;DHT22;1911;53.768;11.474;2023-05-10T00:36:58;11.80;1.00
3792;DHT22;1911;53.768;11.474;2023-05-10T00:39:24;11.80;1.00
3792;DHT22;1911;53.768;11.474;2023-05-10T00:41:51;11.80;1.00
3792;DHT22;1911;53.768;11.474;2023-05-10T00:44:17;11.80;1.00
3792;DHT22;1911;53.768;11.474;2023-05-10T00:46:44;11.70;1.00
3792;DHT22;1911;53.768;11.474;2023-05-10T00:49:10;11.70;1.00
3792;DHT22;1911;53.768;11.474;2023-05-10T00:51:37;11.70;1.00
3792;DHT22;1911;53.768;11.474;2023-05-10T00:54:02;11.60;1.00
3792;DHT22;1911;53.768;11.474;2023-05-10T00:56:28;11.60;1.00
3792;DHT22;1911;53.768;11.474;2023-05-10T00:59:00;11.60;1.00
3792;DHT22;1911;53.768;11.474;2023-05-10T01:01:26;11.60;1.00
3792;DHT22;1911;53.768;11.474;2023-05-10T01:03:53;11.60;1.00
3792;DHT22;1911;53.768;11.474;2023-05-10T01:06:19;11.60;1.00
3792;DHT22;1911;53.768;11.474;2023-05-10T01:08:45;11.50;1.00
3792;DHT22;1911;53.768;11.474;2023-05-10T01:11:11;11.60;1.00
3792;DHT22;1911;53.768;11.474;2023-05-10T01:13:38;11.60;1.00
3792;DHT22;1911;53.768;11.474;2023-05-10T01:16:05;11.50;1.00
3792;DHT22;1911;53.768;11.474;2023-05-10T01:18:36;11.40;1.00
3792;DHT22;1911;53.768;11.474;2023-05-10T01:35:16;11.20;1.00
3792;DHT22;1911;53.768;11.474;2023-05-10T01:37:46;11.20;1.00
3792;DHT22;1911;53.768;11.474;2023-05-10T01:40:30;11.20;1.00
3792;DHT22;1911;53.768;11.474;2023-05-10T01:43:04;11.20;1.00
3792;DHT22;1911;53.768;11.474;2023-05-10T01:45:37;11.20;1.00
3792;DHT22;1911;53.768;11.474;2023-05-10T01:48:07;11.20;1.00
3792;DHT22;1911;53.768;11.474;2023-05-10T01:50:36;11.10;1.00
3792;DHT22;1911;53.768;11.474;2023-05-10T01:53:04;11.10;1.00
3792;DHT22;1911;53.768;11.474;2023-05-10T01:55:34;11.20;1.00
3792;DHT22;1911;53.768;11.474;2023-05-10T01:58:09;11.10;1.00
3792;DHT22;1911;53.768;11.474;2023-05-10T02:00:36;11.10;1.00
3792;DHT22;1911;53.768;11.474;2023-05-10T02:03:07;11.00;1.00
3792;DHT22;1911;53.768;11.474;2023-05-10T02:05:34;11.00;1.00
3792;DHT22;1911;53.768;11.474;2023-05-10T02:08:01;11.00;1.00
3792;DHT22;1911;53.768;11.474;2023-05-10T02:10:29;11.00;1.00
3792;DHT22;1911;53.768;11.474;2023-05-10T02:12:58;11.00;1.00
3792;DHT22;1911;53.768;11.474;2023-05-10T02:15:25;11.00;1.00
3792;DHT22;1911;53.768;11.474;2023-05-10T02:17:54;11.00;1.00
3792;DHT22;1911;53.768;11.474;2023-05-10T02:20:20;11.00;1.00
3792;DHT22;1911;53.768;11.474;2023-05-10T02:22:48;11.00;1.00
3792;DHT22;1911;53.768;11.474;2023-05-10T02:25:15;10.90;1.00
3792;DHT22;1911;53.768;11.474;2023-05-10T02:27:42;10.90;1.00
3792;DHT22;1911;53.768;11.474;2023-05-10T02:30:10;10.90;1.00
3792;DHT22;1911;53.768;11.474;2023-05-10T02:32:37;10.90;1.00
3792;DHT22;1911;53.768;11.474;2023-05-10T02:35:03;10.90;1.00
3792;DHT22;1911;53.768;11.474;2023-05-10T02:37:30;10.80;1.00
3792;DHT22;1911;53.768;11.474;2023-05-10T02:39:56;10.80;1.00
3792;DHT22;1911;53.768;11.474;2023-05-10T02:42:27;10.80;1.00
3792;DHT22;1911;53.768;11.474;2023-05-10T02:44:56;10.80;1.00
3792;DHT22;1911;53.768;11.474;2023-05-10T02:47:24;10.70;1.00
3792;DHT22;1911;53.768;11.474;2023-05-10T02:49:50;10.70;1.00
3792;DHT22;1911;53.768;11.474;2023-05-10T02:52:21;10.70;1.00
3792;DHT22;1911;53.768;11.474;2023-05-10T02:54:50;10.70;1.00
3792;DHT22;1911;53.768;11.474;2023-05-10T02:57:18;10.60;1.00
3792;DHT22;1911;53.768;11.474;2023-05-10T02:59:47;10.60;1.00
3792;DHT22;1911;53.768;11.474;2023-05-10T03:02:13;10.50;1.00
3792;DHT22;1911;53.768;11.474;2023-05-10T03:04:39;10.50;40.00
3792;DHT22;1911;53.768;11.474;2023-05-10T03:07:04;10.60;95.50
3792;DHT22;1911;53.768;11.474;2023-05-10T03:09:31;10.50;99.90
3792;DHT22;1911;53.768;11.474;2023-05-10T03:18:01;10.60;99.90
3792;DHT22;1911;53.768;11.474;2023-05-10T03:20:42;10.60;99.90
3792;DHT22;1911;53.768;11.474;2023-05-10T03:25:44;10.70;99.90
3792;DHT22;1911;53.768;11.474;2023-05-10T03:28:12;10.60;99.90
3792;DHT22;1911;53.768;11.474;2023-05-10T03:30:38;10.60;99.90
3792;DHT22;1911;53.768;11.474;2023-05-10T03:33:07;10.60;42.50
3792;DHT22;1911;53.768;11.474;2023-05-10T03:35:33;10.70;99.90
3792;DHT22;1911;53.768;11.474;2023-05-10T03:37:59;10.70;99.90
3792;DHT22;1911;53.768;11.474;2023-05-10T03:40:26;10.60;99.90
3792;DHT22;1911;53.768;11.474;2023-05-10T03:42:54;10.70;99.90
3792;DHT22;1911;53.768;11.474;2023-05-10T03:45:20;10.70;99.90
3792;DHT22;1911;53.768;11.474;2023-05-10T03:47:45;10.70;99.90
3792;DHT22;1911;53.768;11.474;2023-05-10T03:50:11;10.80;99.90
3792;DHT22;1911;53.768;11.474;2023-05-10T03:52:37;10.80;99.90
3792;DHT22;1911;53.768;11.474;2023-05-10T03:55:05;10.80;99.90
3792;DHT22;1911;53.768;11.474;2023-05-10T03:57:30;10.80;94.90
3792;DHT22;1911;53.768;11.474;2023-05-10T03:59:56;10.90;99.90
3792;DHT22;1911;53.768;11.474;2023-05-10T04:02:21;10.90;99.00
3792;DHT22;1911;53.768;11.474;2023-05-10T04:04:47;10.90;55.60
3792;DHT22;1911;53.768;11.474;2023-05-10T04:07:13;10.90;15.40
3792;DHT22;1911;53.768;11.474;2023-05-10T04:09:40;11.00;27.70
3792;DHT22;1911;53.768;11.474;2023-05-10T04:12:06;10.90;99.90
3792;DHT22;1911;53.768;11.474;2023-05-10T04:14:31;11.00;53.50
3792;DHT22;1911;53.768;11.474;2023-05-10T04:16:57;11.00;99.90
3792;DHT22;1911;53.768;11.474;2023-05-10T04:19:23;11.00;99.90
3792;DHT22;1911;53.768;11.474;2023-05-10T04:21:49;11.10;99.90
3792;DHT22;1911;53.768;11.474;2023-05-10T04:24:14;11.10;99.90
3792;DHT22;1911;53.768;11.474;2023-05-10T04:26:40;11.10;99.90
3792;DHT22;1911;53.768;11.474;2023-05-10T04:29:06;11.10;97.40
3792;DHT22;1911;53.768;11.474;2023-05-10T04:31:31;11.10;49.60
3792;DHT22;1911;53.768;11.474;2023-05-10T04:33:57;11.10;99.90
3792;DHT22;1911;53.768;11.474;2023-05-10T04:36:23;11.20;99.90
3792;DHT22;1911;53.768;11.474;2023-05-10T04:38:48;11.20;99.90
3792;DHT22;1911;53.768;11.474;2023-05-10T04:41:14;11.30;95.40
3792;DHT22;1911;53.768;11.474;2023-05-10T04:43:39;11.30;72.90
3792;DHT22;1911;53.768;11.474;2023-05-10T04:46:05;11.40;39.80
3792;DHT22;1911;53.768;11.474;2023-05-10T04:48:32;11.50;29.70
3792;DHT22;1911;53.768;11.474;2023-05-10T04:50:58;11.50;25.90
3792;DHT22;1911;53.768;11.474;2023-05-10T04:53:23;11.50;8.90
3792;DHT22;1911;53.768;11.474;2023-05-10T04:55:49;11.60;1.00
3792;DHT22;1911;53.768;11.474;2023-05-10T04:58:15;11.60;1.00
3792;DHT22;1911;53.768;11.474;2023-05-10T05:00:40;11.70;1.00
3792;DHT22;1911;53.768;11.474;2023-05-10T05:03:07;11.80;1.00
3792;DHT22;1911;53.768;11.474;2023-05-10T05:05:32;12.00;1.00
3792;DHT22;1911;53.768;11.474;2023-05-10T05:07:58;12.50;1.00
3792;DHT22;1911;53.768;11.474;2023-05-10T05:10:23;12.90;1.00
3792;DHT22;1911;53.768;11.474;2023-05-10T05:12:49;13.40;1.00
3792;DHT22;1911;53.768;11.474;2023-05-10T05:15:14;14.50;1.00
3792;DHT22;1911;53.768;11.474;2023-05-10T05:17:42;16.00;1.00
3792;DHT22;1911;53.768;11.474;2023-05-10T05:20:08;17.10;1.00
3792;DHT22;1911;53.768;11.474;2023-05-10T05:22:35;17.50;1.00
3792;DHT22;1911;53.768;11.474;2023-05-10T05:25:00;18.00;1.00
3792;DHT22;1911;53.768;11.474;2023-05-10T05:27:28;18.00;1.00
3792;DHT22;1911;53.768;11.474;2023-05-10T05:29:54;18.40;1.00
3792;DHT22;1911;53.768;11.474;2023-05-10T05:32:20;18.50;1.00
3792;DHT22;1911;53.768;11.474;2023-05-10T05:34:46;18.40;1.00
3792;DHT22;1911;53.768;11.474;2023-05-10T05:37:20;18.70;1.00
3792;DHT22;1911;53.768;11.474;2023-05-10T05:39:46;19.00;1.00
3792;DHT22;1911;53.768;11.474;2023-05-10T05:42:13;19.70;1.00
3792;DHT22;1911;53.768;11.474;2023-05-10T05:44:39;20.10;1.00
3792;DHT22;1911;53.768;11.474;2023-05-10T05:47:05;20.10;1.00
3792;DHT22;1911;53.768;11.474;2023-05-10T05:49:32;20.10;1.00
3792;DHT22;1911;53.768;11.474;2023-05-10T05:52:01;20.20;1.00
3792;DHT22;1911;53.768;11.474;2023-05-10T05:54:28;20.30;1.00
3792;DHT22;1911;53.768;11.474;2023-05-10T05:56:54;20.60;1.00
3792;DHT22;1911;53.768;11.474;2023-05-10T05:59:20;20.40;1.00
3792;DHT22;1911;53.768;11.474;2023-05-10T06:01:46;20.00;1.00
3792;DHT22;1911;53.768;11.474;2023-05-10T06:04:12;19.70;1.00
3792;DHT22;1911;53.768;11.474;2023-05-10T06:06:38;20.00;1.00
3792;DHT22;1911;53.768;11.474;2023-05-10T06:09:03;20.30;1.00
3792;DHT22;1911;53.768;11.474;2023-05-10T06:11:29;20.70;1.00
3792;DHT22;1911;53.768;11.474;2023-05-10T06:13:57;20.90;1.00
3792;DHT22;1911;53.768;11.474;2023-05-10T06:16:23;21.00;1.00
3792;DHT22;1911;53.768;11.474;2023-05-10T06:18:49;20.70;1.00
3792;DHT22;1911;53.768;11.474;2023-05-10T06:21:15;20.70;1.00
3792;DHT22;1911;53.768;11.474;2023-05-10T06:23:41;20.00;1.00
3792;DHT22;1911;53.768;11.474;2023-05-10T06:26:07;19.70;1.00
3792;DHT22;1911;53.768;11.474;2023-05-10T06:28:32;19.90;1.00
3792;DHT22;1911;53.768;11.474;2023-05-10T06:30:59;20.20;1.00
3792;DHT22;1911;53.768;11.474;2023-05-10T06:33:24;20.30;1.00
3792;DHT22;1911;53.768;11.474;2023-05-10T06:35:50;20.70;1.00
3792;DHT22;1911;53.768;11.474;2023-05-10T06:38:15;21.00;1.00
3792;DHT22;1911;53.768;11.474;2023-05-10T06:40:42;20.90;1.00
3792;DHT22;1911;53.768;11.474;2023-05-10T06:43:08;21.30;1.00
3792;DHT22;1911;53.768;11.474;2023-05-10T06:45:33;20.70;1.00
3792;DHT22;1911;53.768;11.474;2023-05-10T06:47:59;20.50;1.00
3792;DHT22;1911;53.768;11.474;2023-05-10T06:50:25;20.30;1.00
3792;DHT22;1911;53.768;11.474;2023-05-10T06:52:50;21.00;1.00
3792;DHT22;1911;53.768;11.474;2023-05-10T06:55:16;21.30;1.00
3792;DHT22;1911;53.768;11.474;2023-05-10T06:57:41;21.00;1.00
3792;DHT22;1911;53.768;11.474;2023-05-10T07:00:07;21.20;1.00
3792;DHT22;1911;53.768;11.474;2023-05-10T07:02:35;21.10;1.00
3792;DHT22;1911;53.768;11.474;2023-05-10T07:05:00;21.30;1.00
3792;DHT22;1911;53.768;11.474;2023-05-10T07:07:27;21.40;1.00
3792;DHT22;1911;53.768;11.474;2023-05-10T07:09:53;21.00;1.00
3792;DHT22;1911;53.768;11.474;2023-05-10T07:12:19;20.60;1.00
3792;DHT22;1911;53.768;11.474;2023-05-10T07:14:45;20.80;1.00
3792;DHT22;1911;53.768;11.474;2023-05-10T07:17:11;20.80;1.00
3792;DHT22;1911;53.768;11.474;2023-05-10T07:19:37;21.00;1.00
3792;DHT22;1911;53.768;11.474;2023-05-10T07:22:03;21.50;1.00
3792;DHT22;1911;53.768;11.474;2023-05-10T07:24:28;21.60;1.00
3792;DHT22;1911;53.768;11.474;2023-05-10T07:26:54;21.70;1.00
3792;DHT22;1911;53.768;11.474;2023-05-10T07:29:19;21.30;1.00
3792;DHT22;1911;53.768;11.474;2023-05-10T07:31:45;21.70;1.00
3792;DHT22;1911;53.768;11.474;2023-05-10T07:34:11;22.00;1.00
3792;DHT22;1911;53.768;11.474;2023-05-10T07:36:36;22.50;1.00
3792;DHT22;1911;53.768;11.474;2023-05-10T07:39:02;21.70;1.00
3792;DHT22;1911;53.768;11.474;2023-05-10T07:41:28;22.00;1.00
3792;DHT22;1911;53.768;11.474;2023-05-10T07:43:54;22.20;1.00
3792;DHT22;1911;53.768;11.474;2023-05-10T07:46:20;22.20;1.00
3792;DHT22;1911;53.768;11.474;2023-05-10T07:48:45;22.60;1.00
3792;DHT22;1911;53.768;11.474;2023-05-10T07:51:11;23.20;1.00
3792;DHT22;1911;53.768;11.474;2023-05-10T07:53:38;23.30;1.00
3792;DHT22;1911;53.768;11.474;2023-05-10T07:56:27;22.90;1.00
3792;DHT22;1911;53.768;11.474;2023-05-10T07:58:58;22.20;1.00
3792;DHT22;1911;53.768;11.474;2023-05-10T08:01:24;22.20;1.00
3792;DHT22;1911;53.768;11.474;2023-05-10T08:03:50;22.00;1.00
3792;DHT22;1911;53.768;11.474;2023-05-10T08:06:18;22.10;1.00
3792;DHT22;1911;53.768;11.474;2023-05-10T08:08:45;21.60;1.00
3792;DHT22;1911;53.768;11.474;2023-05-10T08:13:45;21.90;1.00
3792;DHT22;1911;53.768;11.474;2023-05-10T08:16:11;22.00;1.00
3792;DHT22;1911;53.768;11.474;2023-05-10T08:18:38;21.30;1.00
3792;DHT22;1911;53.768;11.474;2023-05-10T08:21:04;21.20;1.00
3792;DHT22;1911;53.768;11.474;2023-05-10T08:23:30;20.90;1.00
3792;DHT22;1911;53.768;11.474;2023-05-10T08:25:56;20.70;1.00
3792;DHT22;1911;53.768;11.474;2023-05-10T08:28:22;20.70;1.00
3792;DHT22;1911;53.768;11.474;2023-05-10T08:30:47;21.00;1.00
3792;DHT22;1911;53.768;11.474;2023-05-10T08:33:13;21.40;1.00
3792;DHT22;1911;53.768;11.474;2023-05-10T08:35:38;21.80;1.00
3792;DHT22;1911;53.768;11.474;2023-05-10T08:38:04;22.00;1.00
3792;DHT22;1911;53.768;11.474;2023-05-10T08:40:30;22.00;1.00
3792;DHT22;1911;53.768;11.474;2023-05-10T08:43:01;22.10;1.00
3792;DHT22;1911;53.768;11.474;2023-05-10T08:45:32;22.00;1.00
3792;DHT22;1911;53.768;11.474;2023-05-10T08:48:01;22.10;1.00
3792;DHT22;1911;53.768;11.474;2023-05-10T08:50:27;22.30;1.00
3792;DHT22;1911;53.768;11.474;2023-05-10T08:52:55;21.70;1.00
3792;DHT22;1911;53.768;11.474;2023-05-10T08:55:23;20.80;1.00
3792;DHT22;1911;53.768;11.474;2023-05-10T08:57:49;20.40;1.00
3792;DHT22;1911;53.768;11.474;2023-05-10T09:00:16;20.60;1.00
3792;DHT22;1911;53.768;11.474;2023-05-10T09:02:42;20.70;1.00
3792;DHT22;1911;53.768;11.474;2023-05-10T09:05:08;20.70;1.00
3792;DHT22;1911;53.768;11.474;2023-05-10T09:07:36;20.60;1.00
3792;DHT22;1911;53.768;11.474;2023-05-10T09:10:02;20.70;1.00
3792;DHT22;1911;53.768;11.474;2023-05-10T09:12:28;20.30;1.00
3792;DHT22;1911;53.768;11.474;2023-05-10T09:14:54;20.00;1.00
3792;DHT22;1911;53.768;11.474;2023-05-10T09:17:24;19.90;1.00
3792;DHT22;1911;53.768;11.474;2023-05-10T09:19:58;19.80;1.00
3792;DHT22;1911;53.768;11.474;2023-05-10T09:22:24;19.40;1.00
3792;DHT22;1911;53.768;11.474;2023-05-10T09:25:09;19.10;1.00
3792;DHT22;1911;53.768;11.474;2023-05-10T09:27:38;19.20;1.00
3792;DHT22;1911;53.768;11.474;2023-05-10T09:30:04;19.40;1.00
3792;DHT22;1911;53.768;11.474;2023-05-10T09:32:43;19.40;1.00
3792;DHT22;1911;53.768;11.474;2023-05-10T09:35:14;19.40;1.00
3792;DHT22;1911;53.768;11.474;2023-05-10T09:37:41;19.30;1.00
3792;DHT22;1911;53.768;11.474;2023-05-10T09:40:28;19.30;1.00
3792;DHT22;1911;53.768;11.474;2023-05-10T09:43:06;19.30;1.00
3792;DHT22;1911;53.768;11.474;2023-05-10T09:45:34;19.40;1.00
3792;DHT22;1911;53.768;11.474;2023-05-10T09:48:02;19.20;1.00
3792;DHT22;1911;53.768;11.474;2023-05-10T09:50:31;19.00;1.00
3792;DHT22;1911;53.768;11.474;2023-05-10T09:52:58;19.10;1.00
3792;DHT22;1911;53.768;11.474;2023-05-10T09:55:45;19.00;1.00
3792;DHT22;1911;53.768;11.474;2023-05-10T09:58:12;19.20;1.00
3792;DHT22;1911;53.768;11.474;2023-05-10T10:00:40;19.20;1.00
3792;DHT22;1911;53.768;11.474;2023-05-10T10:03:06;19.40;1.00
3792;DHT22;1911;53.768;11.474;2023-05-10T10:05:36;19.50;1.00
3792;DHT22;1911;53.768;11.474;2023-05-10T10:08:05;19.30;1.00
3792;DHT22;1911;53.768;11.474;2023-05-10T10:10:32;19.20;1.00
3792;DHT22;1911;53.768;11.474;2023-05-10T10:12:58;19.10;1.00
3792;DHT22;1911;53.768;11.474;2023-05-10T10:15:24;19.20;1.00
3792;DHT22;1911;53.768;11.474;2023-05-10T10:17:51;19.30;1.00
3792;DHT22;1911;53.768;11.474;2023-05-10T10:20:19;19.40;1.00
3792;DHT22;1911;53.768;11.474;2023-05-10T10:22:45;19.50;1.00
3792;DHT22;1911;53.768;11.474;2023-05-10T10:25:12;19.50;1.00
3792;DHT22;1911;53.768;11.474;2023-05-10T10:35:58;19.60;1.00
3792;DHT22;1911;53.768;11.474;2023-05-10T10:38:25;19.60;1.00
3792;DHT22;1911;53.768;11.474;2023-05-10T10:41:11;19.50;1.00
3792;DHT22;1911;53.768;11.474;2023-05-10T10:52:22;19.70;1.00
3792;DHT22;1911;53.768;11.474;2023-05-10T10:57:43;19.80;1.00
3792;DHT22;1911;53.768;11.474;2023-05-10T11:02:49;20.10;1.00
3792;DHT22;1911;53.768;11.474;2023-05-10T11:07:55;19.90;1.00
3792;DHT22;1911;53.768;11.474;2023-05-10T11:10:25;20.10;1.00
3792;DHT22;1911;53.768;11.474;2023-05-10T11:15:35;20.70;1.00
3792;DHT22;1911;53.768;11.474;2023-05-10T11:18:20;20.90;1.00
3792;DHT22;1911;53.768;11.474;2023-05-10T11:21:01;21.00;1.00
3792;DHT22;1911;53.768;11.474;2023-05-10T11:26:09;20.80;1.00
3792;DHT22;1911;53.768;11.474;2023-05-10T11:28:44;20.80;1.00
3792;DHT22;1911;53.768;11.474;2023-05-10T11:31:10;20.70;1.00
3792;DHT22;1911;53.768;11.474;2023-05-10T11:36:24;20.10;1.00
3792;DHT22;1911;53.768;11.474;2023-05-10T11:38:50;19.80;1.00
3792;DHT22;1911;53.768;11.474;2023-05-10T11:41:18;19.60;1.00
3792;DHT22;1911;53.768;11.474;2023-05-10T11:43:48;19.60;1.00
3792;DHT22;1911;53.768;11.474;2023-05-10T11:46:15;19.60;1.00
3792;DHT22;1911;53.768;11.474;2023-05-10T11:48:42;19.60;1.00
3792;DHT22;1911;53.768;11.474;2023-05-10T11:51:08;19.60;1.00
3792;DHT22;1911;53.768;11.474;2023-05-10T11:53:34;19.50;1.00
3792;DHT22;1911;53.768;11.474;2023-05-10T11:56:04;19.60;1.00
3792;DHT22;1911;53.768;11.474;2023-05-10T11:58:31;19.60;1.00
3792;DHT22;1911;53.768;11.474;2023-05-10T12:01:01;19.60;1.00
3792;DHT22;1911;53.768;11.474;2023-05-10T12:03:27;19.50;1.00
3792;DHT22;1911;53.768;11.474;2023-05-10T12:05:54;19.50;1.00
3792;DHT22;1911;53.768;11.474;2023-05-10T12:08:23;19.50;1.00
3792;DHT22;1911;53.768;11.474;2023-05-10T12:10:49;19.50;1.00
3792;DHT22;1911;53.768;11.474;2023-05-10T12:13:15;19.50;1.00
3792;DHT22;1911;53.768;11.474;2023-05-10T12:15:41;19.40;1.00
3792;DHT22;1911;53.768;11.474;2023-05-10T12:18:14;19.30;1.00
3792;DHT22;1911;53.768;11.474;2023-05-10T12:20:40;19.00;1.00
3792;DHT22;1911;53.768;11.474;2023-05-10T12:23:08;18.90;1.00
3792;DHT22;1911;53.768;11.474;2023-05-10T12:25:35;19.00;1.00
3792;DHT22;1911;53.768;11.474;2023-05-10T12:28:04;19.10;1.00
3792;DHT22;1911;53.768;11.474;2023-05-10T12:30:33;19.30;1.00
3792;DHT22;1911;53.768;11.474;2023-05-10T12:35:33;19.20;1.00
3792;DHT22;1911;53.768;11.474;2023-05-10T12:37:59;18.90;1.00
3792;DHT22;1911;53.768;11.474;2023-05-10T12:40:24;18.70;1.00
3792;DHT22;1911;53.768;11.474;2023-05-10T12:42:50;18.70;1.00
3792;DHT22;1911;53.768;11.474;2023-05-10T12:45:18;19.00;1.00
3792;DHT22;1911;53.768;11.474;2023-05-10T12:47:43;19.20;1.00
3792;DHT22;1911;53.768;11.474;2023-05-10T12:50:09;19.30;1.00
3792;DHT22;1911;53.768;11.474;2023-05-10T12:52:35;19.40;1.00
3792;DHT22;1911;53.768;11.474;2023-05-10T12:55:01;19.40;1.00
3792;DHT22;1911;53.768;11.474;2023-05-10T12:57:28;19.40;1.00
3792;DHT22;1911;53.768;11.474;2023-05-10T12:59:54;19.20;1.00
3792;DHT22;1911;53.768;11.474;2023-05-10T13:02:20;19.00;1.00
3792;DHT22;1911;53.768;11.474;2023-05-10T13:04:47;18.90;1.00
3792;DHT22;1911;53.768;11.474;2023-05-10T13:07:13;18.60;1.00
3792;DHT22;1911;53.768;11.474;2023-05-10T13:09:39;18.50;1.00
3792;DHT22;1911;53.768;11.474;2023-05-10T13:12:05;18.50;1.00
3792;DHT22;1911;53.768;11.474;2023-05-10T13:14:31;18.50;1.00
3792;DHT22;1911;53.768;11.474;2023-05-10T13:16:56;18.60;1.00
3792;DHT22;1911;53.768;11.474;2023-05-10T13:19:22;18.50;1.00
3792;DHT22;1911;53.768;11.474;2023-05-10T13:21:48;18.40;1.00
3792;DHT22;1911;53.768;11.474;2023-05-10T13:24:13;18.20;1.00
3792;DHT22;1911;53.768;11.474;2023-05-10T13:26:42;18.20;1.00
3792;DHT22;1911;53.768;11.474;2023-05-10T13:29:08;18.10;1.00
3792;DHT22;1911;53.768;11.474;2023-05-10T13:31:34;18.10;1.00
3792;DHT22;1911;53.768;11.474;2023-05-10T13:37:46;17.90;1.00
3792;DHT22;1911;53.768;11.474;2023-05-10T13:43:42;17.90;1.00
3792;DHT22;1911;53.768;11.474;2023-05-10T13:46:08;17.90;1.00
3792;DHT22;1911;53.768;11.474;2023-05-10T13:48:34;17.80;1.00
3792;DHT22;1911;53.768;11.474;2023-05-10T13:50:59;17.80;1.00
3792;DHT22;1911;53.768;11.474;2023-05-10T13:53:25;17.70;1.00
3792;DHT22;1911;53.768;11.474;2023-05-10T13:55:50;17.60;1.00
3792;DHT22;1911;53.768;11.474;2023-05-10T13:58:16;17.60;1.00
3792;DHT22;1911;53.768;11.474;2023-05-10T14:00:41;17.60;1.00
3792;DHT22;1911;53.768;11.474;2023-05-10T14:03:07;17.60;1.00
3792;DHT22;1911;53.768;11.474;2023-05-10T14:05:36;17.50;1.00
3792;DHT22;1911;53.768;11.474;2023-05-10T14:08:01;17.60;1.00
3792;DHT22;1911;53.768;11.474;2023-05-10T14:10:27;17.60;1.00
3792;DHT22;1911;53.768;11.474;2023-05-10T14:19:07;17.80;1.00
3792;DHT22;1911;53.768;11.474;2023-05-10T14:21:55;17.90;1.00
3792;DHT22;1911;53.768;11.474;2023-05-10T14:24:36;18.10;1.00
3792;DHT22;1911;53.768;11.474;2023-05-10T14:27:27;18.10;1.00
3792;DHT22;1911;53.768;11.474;2023-05-10T14:30:13;18.20;1.00
3792;DHT22;1911;53.768;11.474;2023-05-10T14:32:38;18.10;1.00
3792;DHT22;1911;53.768;11.474;2023-05-10T14:35:06;18.10;1.00
3792;DHT22;1911;53.768;11.474;2023-05-10T14:37:32;18.10;1.00
3792;DHT22;1911;53.768;11.474;2023-05-10T14:39:58;18.00;1.00
3792;DHT22;1911;53.768;11.474;2023-05-10T14:42:24;18.00;1.00
3792;DHT22;1911;53.768;11.474;2023-05-10T14:44:49;18.00;1.00
3792;DHT22;1911;53.768;11.474;2023-05-10T14:47:15;17.90;1.00
3792;DHT22;1911;53.768;11.474;2023-05-10T14:49:40;17.80;1.00
3792;DHT22;1911;53.768;11.474;2023-05-10T14:52:06;17.80;1.00
3792;DHT22;1911;53.768;11.474;2023-05-10T14:54:32;17.80;1.00
3792;DHT22;1911;53.768;11.474;2023-05-10T14:56:59;17.70;1.00
3792;DHT22;1911;53.768;11.474;2023-05-10T14:59:25;17.70;1.00
3792;DHT22;1911;53.768;11.474;2023-05-10T15:01:51;17.60;1.00
3792;DHT22;1911;53.768;11.474;2023-05-10T15:04:16;17.60;1.00
3792;DHT22;1911;53.768;11.474;2023-05-10T15:06:42;17.60;1.00
3792;DHT22;1911;53.768;11.474;2023-05-10T15:09:07;17.50;30.50
3792;DHT22;1911;53.768;11.474;2023-05-10T15:11:36;17.50;99.90
3792;DHT22;1911;53.768;11.474;2023-05-10T15:14:04;17.60;99.90
3792;DHT22;1911;53.768;11.474;2023-05-10T15:16:30;17.70;99.90
3792;DHT22;1911;53.768;11.474;2023-05-10T15:18:55;17.70;99.90
3792;DHT22;1911;53.768;11.474;2023-05-10T15:21:21;17.80;99.90
3792;DHT22;1911;53.768;11.474;2023-05-10T15:23:46;17.70;99.90
3792;DHT22;1911;53.768;11.474;2023-05-10T15:26:12;17.70;99.90
3792;DHT22;1911;53.768;11.474;2023-05-10T15:28:37;17.60;99.90
3792;DHT22;1911;53.768;11.474;2023-05-10T15:31:03;17.60;99.90
3792;DHT22;1911;53.768;11.474;2023-05-10T15:33:29;17.60;99.90
3792;DHT22;1911;53.768;11.474;2023-05-10T15:35:54;17.60;99.90
3792;DHT22;1911;53.768;11.474;2023-05-10T15:38:20;17.50;99.90
3792;DHT22;1911;53.768;11.474;2023-05-10T15:40:45;17.50;99.90
3792;DHT22;1911;53.768;11.474;2023-05-10T15:43:11;17.60;99.90
3792;DHT22;1911;53.768;11.474;2023-05-10T15:45:36;17.50;99.90
3792;DHT22;1911;53.768;11.474;2023-05-10T15:48:02;17.60;99.90
3792;DHT22;1911;53.768;11.474;2023-05-10T15:50:28;17.70;1.00
3792;DHT22;1911;53.768;11.474;2023-05-10T15:52:53;17.60;1.00
3792;DHT22;1911;53.768;11.474;2023-05-10T15:55:19;17.50;1.00
3792;DHT22;1911;53.768;11.474;2023-05-10T15:57:45;17.40;1.00
3792;DHT22;1911;53.768;11.474;2023-05-10T16:00:13;17.20;1.00
3792;DHT22;1911;53.768;11.474;2023-05-10T16:02:40;17.00;1.00
3792;DHT22;1911;53.768;11.474;2023-05-10T16:05:08;16.90;52.40
3792;DHT22;1911;53.768;11.474;2023-05-10T16:07:34;16.80;1.00
3792;DHT22;1911;53.768;11.474;2023-05-10T16:10:00;16.60;1.00
3792;DHT22;1911;53.768;11.474;2023-05-10T16:12:29;16.60;99.90
3792;DHT22;1911;53.768;11.474;2023-05-10T16:14:55;16.50;99.90
3792;DHT22;1911;53.768;11.474;2023-05-10T16:17:21;16.40;1.00
3792;DHT22;1911;53.768;11.474;2023-05-10T16:19:47;16.30;1.00
3792;DHT22;1911;53.768;11.474;2023-05-10T16:22:12;16.20;1.00
3792;DHT22;1911;53.768;11.474;2023-05-10T16:24:38;16.20;99.90
3792;DHT22;1911;53.768;11.474;2023-05-10T16:27:04;16.20;99.90
3792;DHT22;1911;53.768;11.474;2023-05-10T16:29:29;16.10;99.90
3792;DHT22;1911;53.768;11.474;2023-05-10T16:31:56;16.20;99.90
3792;DHT22;1911;53.768;11.474;2023-05-10T16:34:21;16.20;99.90
3792;DHT22;1911;53.768;11.474;2023-05-10T16:36:48;16.20;1.00
3792;DHT22;1911;53.768;11.474;2023-05-10T16:39:14;16.10;1.00
3792;DHT22;1911;53.768;11.474;2023-05-10T16:41:40;16.10;1.00
3792;DHT22;1911;53.768;11.474;2023-05-10T16:44:06;16.10;21.20
3792;DHT22;1911;53.768;11.474;2023-05-10T16:46:32;16.10;99.90
3792;DHT22;1911;53.768;11.474;2023-05-10T16:48:58;16.10;99.90
3792;DHT22;1911;53.768;11.474;2023-05-10T16:51:25;16.10;99.90
3792;DHT22;1911;53.768;11.474;2023-05-10T16:53:51;16.20;99.90
3792;DHT22;1911;53.768;11.474;2023-05-10T16:56:16;16.10;1.00
3792;DHT22;1911;53.768;11.474;2023-05-10T16:58:42;16.10;1.00
3792;DHT22;1911;53.768;11.474;2023-05-10T17:01:10;16.00;99.90
3792;DHT22;1911;53.768;11.474;2023-05-10T17:03:36;16.00;1.00
3792;DHT22;1911;53.768;11.474;2023-05-10T17:06:01;15.90;1.00
3792;DHT22;1911;53.768;11.474;2023-05-10T17:08:32;15.90;80.50
3792;DHT22;1911;53.768;11.474;2023-05-10T17:11:03;15.80;99.90
3792;DHT22;1911;53.768;11.474;2023-05-10T17:13:29;15.80;99.90